createdAt,value
2022-12-27T00:00:17.304Z,11.52
2022-12-27T00:02:45.406Z,11.53
2022-12-27T00:05:15.520Z,11.50
2022-12-27T00:07:44.662Z,11.51
2022-12-27T00:10:12.879Z,11.49
2022-12-27T00:12:40.832Z,11.51
2022-12-27T00:15:08.955Z,11.46
2022-12-27T00:17:36.768Z,11.45
2022-12-27T00:20:11.370Z,11.43
2022-12-27T00:22:41.046Z,11.40
2022-12-27T00:25:09.929Z,11.36
2022-12-27T00:27:38.647Z,11.36
2022-12-27T00:30:08.629Z,11.35
2022-12-27T00:32:36.537Z,11.34
2022-12-27T00:35:04.926Z,11.29
2022-12-27T00:37:32.664Z,11.31
2022-12-27T00:40:00.467Z,11.31
2022-12-27T00:42:28.141Z,11.30
2022-12-27T00:44:55.796Z,11.31
2022-12-27T00:47:23.420Z,11.29
2022-12-27T00:49:51.294Z,11.27
2022-12-27T00:52:19.073Z,11.22
2022-12-27T00:54:46.929Z,11.20
2022-12-27T00:57:14.757Z,11.19
2022-12-27T00:59:42.634Z,11.20
2022-12-27T01:02:10.446Z,11.17
2022-12-27T01:04:38.111Z,11.18
2022-12-27T01:07:05.831Z,11.17
2022-12-27T01:09:34.479Z,11.15
2022-12-27T01:12:02.337Z,11.14
2022-12-27T01:14:30.124Z,11.11
2022-12-27T01:16:57.997Z,11.08
2022-12-27T01:19:25.843Z,11.07
2022-12-27T01:21:53.639Z,11.04
2022-12-27T01:24:22.422Z,11.00
2022-12-27T01:26:50.160Z,10.96
2022-12-27T01:29:17.983Z,10.96
2022-12-27T01:31:46.131Z,10.94
2022-12-27T01:34:14.420Z,10.94
2022-12-27T01:36:42.348Z,10.91
2022-12-27T01:39:12.828Z,10.91
2022-12-27T01:42:03.030Z,10.90
2022-12-27T01:44:43.686Z,10.93
2022-12-27T01:47:59.093Z,10.89
2022-12-27T01:50:29.404Z,10.90
2022-12-27T01:53:27.867Z,10.89
2022-12-27T01:56:08.685Z,10.91
2022-12-27T01:59:01.822Z,10.86
2022-12-27T02:01:43.924Z,10.90
2022-12-27T02:04:20.474Z,10.92
2022-12-27T02:06:49.028Z,10.92
2022-12-27T02:09:21.497Z,10.91
2022-12-27T02:11:55.375Z,10.90
2022-12-27T02:14:37.925Z,10.88
2022-12-27T02:17:23.644Z,10.82
2022-12-27T02:20:12.771Z,10.78
2022-12-27T02:23:33.456Z,10.73
2022-12-27T02:26:52.775Z,10.62
2022-12-27T02:29:43.212Z,10.65
2022-12-27T02:33:03.537Z,10.54
2022-12-27T02:35:54.350Z,10.53
2022-12-27T02:38:33.348Z,10.47
2022-12-27T02:41:23.392Z,10.45
2022-12-27T02:44:14.112Z,10.41
2022-12-27T02:47:01.956Z,10.37
2022-12-27T02:50:01.606Z,10.35
2022-12-27T02:53:10.042Z,10.26
2022-12-27T02:56:42.674Z,10.19
2022-12-27T03:00:02.513Z,10.13
2022-12-27T03:03:23.545Z,10.06
2022-12-27T03:06:34.802Z,10.03
2022-12-27T03:09:51.291Z,9.95
2022-12-27T03:13:37.731Z,9.90
2022-12-27T03:16:55.723Z,9.90
2022-12-27T03:20:03.701Z,9.90
2022-12-27T03:22:53.444Z,9.93
2022-12-27T03:25:28.020Z,9.93
2022-12-27T03:28:25.684Z,9.92
2022-12-27T03:32:04.789Z,9.91
2022-12-27T03:34:39.923Z,9.83
2022-12-27T03:37:36.213Z,9.85
2022-12-27T03:40:18.756Z,9.85
2022-12-27T03:43:11.058Z,9.84
2022-12-27T03:46:03.410Z,9.83
2022-12-27T03:48:37.567Z,9.82
2022-12-27T03:51:06.844Z,9.85
2022-12-27T03:53:39.216Z,9.88
2022-12-27T03:56:08.267Z,9.88
2022-12-27T03:58:36.262Z,9.91
2022-12-27T04:01:04.315Z,9.89
2022-12-27T04:03:32.038Z,9.93
2022-12-27T04:05:59.774Z,9.95
2022-12-27T04:08:46.472Z,9.92
2022-12-27T04:11:32.999Z,9.93
2022-12-27T04:14:19.281Z,9.93
2022-12-27T04:17:05.790Z,9.91
2022-12-27T04:19:52.485Z,9.92
2022-12-27T04:22:39.384Z,9.90
2022-12-27T04:25:26.101Z,9.91
2022-12-27T04:28:13.752Z,9.90
2022-12-27T04:31:00.180Z,9.86
2022-12-27T04:33:46.832Z,9.85
2022-12-27T04:36:14.481Z,9.86
2022-12-27T04:38:42.171Z,9.91
2022-12-27T04:41:28.758Z,9.91
2022-12-27T04:44:19.571Z,9.90
2022-12-27T04:47:06.038Z,9.89
2022-12-27T04:49:53.156Z,9.90
2022-12-27T04:52:41.984Z,9.88
2022-12-27T04:55:24.369Z,9.90
2022-12-27T04:57:53.202Z,9.89
2022-12-27T05:00:41.733Z,9.93
2022-12-27T05:03:16.410Z,9.91
2022-12-27T05:05:46.172Z,9.91
2022-12-27T05:08:34.152Z,9.88
2022-12-27T05:11:20.732Z,9.91
2022-12-27T05:14:00.607Z,9.93
2022-12-27T05:16:39.678Z,9.93
2022-12-27T05:19:10.638Z,9.90
2022-12-27T05:22:01.069Z,9.93
2022-12-27T05:24:47.871Z,9.92
2022-12-27T05:27:16.548Z,9.92
2022-12-27T05:29:44.177Z,9.92
2022-12-27T05:32:13.491Z,9.89
2022-12-27T05:35:01.417Z,9.87
2022-12-27T05:37:53.078Z,9.83
2022-12-27T05:40:24.625Z,9.87
2022-12-27T05:42:53.034Z,9.87
2022-12-27T05:45:21.001Z,9.89
2022-12-27T05:47:48.816Z,9.89
2022-12-27T05:50:17.750Z,9.88
2022-12-27T05:52:50.126Z,9.88
2022-12-27T05:55:18.228Z,9.92
2022-12-27T05:57:45.941Z,9.90
2022-12-27T06:00:14.476Z,9.92
2022-12-27T06:02:43.053Z,9.92
2022-12-27T06:05:11.542Z,9.89
2022-12-27T06:07:39.858Z,9.92
2022-12-27T06:10:09.315Z,9.95
2022-12-27T06:12:37.840Z,9.90
2022-12-27T06:15:07.228Z,9.91
2022-12-27T06:17:34.947Z,9.86
2022-12-27T06:20:03.104Z,9.80
2022-12-27T06:22:30.948Z,9.85
2022-12-27T06:24:58.757Z,9.78
2022-12-27T06:27:26.401Z,9.80
2022-12-27T06:29:54.099Z,9.79
2022-12-27T06:32:22.046Z,9.81
2022-12-27T06:34:49.695Z,9.82
2022-12-27T06:37:18.113Z,9.85
2022-12-27T06:39:45.836Z,9.85
2022-12-27T06:42:13.751Z,9.87
2022-12-27T06:44:41.484Z,9.87
2022-12-27T06:47:09.325Z,9.83
2022-12-27T06:49:36.985Z,9.88
2022-12-27T06:52:04.878Z,9.88
2022-12-27T06:54:32.630Z,9.87
2022-12-27T06:57:00.336Z,9.89
2022-12-27T06:59:29.579Z,9.88
2022-12-27T07:01:57.645Z,9.89
2022-12-27T07:04:25.485Z,9.86
2022-12-27T07:06:53.095Z,9.86
2022-12-27T07:09:20.716Z,9.86
2022-12-27T07:11:48.694Z,9.83
2022-12-27T07:14:16.472Z,9.81
2022-12-27T07:16:44.301Z,9.81
2022-12-27T07:19:12.147Z,9.80
2022-12-27T07:21:39.912Z,9.81
2022-12-27T07:24:07.947Z,9.81
2022-12-27T07:26:35.871Z,9.75
2022-12-27T07:29:03.654Z,9.72
2022-12-27T07:31:32.810Z,9.73
2022-12-27T07:34:03.496Z,9.71
2022-12-27T07:36:39.276Z,9.69
2022-12-27T07:39:08.490Z,9.68
2022-12-27T07:41:37.211Z,9.67
2022-12-27T07:44:06.073Z,9.63
2022-12-27T07:46:34.648Z,9.62
2022-12-27T07:49:02.625Z,9.59
2022-12-27T07:51:30.471Z,9.60
2022-12-27T07:53:58.236Z,9.60
2022-12-27T07:56:28.558Z,9.55
2022-12-27T07:58:59.524Z,9.56
2022-12-27T08:01:54.646Z,9.59
2022-12-27T08:04:23.660Z,9.53
2022-12-27T08:06:51.541Z,9.59
2022-12-27T08:09:29.659Z,9.61
2022-12-27T08:11:57.441Z,9.57
2022-12-27T08:14:25.636Z,9.64
2022-12-27T08:16:54.106Z,9.66
2022-12-27T08:19:22.293Z,9.65
2022-12-27T08:21:49.944Z,9.64
2022-12-27T08:24:17.771Z,9.69
2022-12-27T08:26:46.255Z,9.72
2022-12-27T08:29:14.061Z,9.74
2022-12-27T08:31:41.779Z,9.76
2022-12-27T08:34:09.916Z,9.78
2022-12-27T08:39:27.666Z,9.83
2022-12-27T08:41:55.514Z,9.86
2022-12-27T08:44:24.476Z,9.87
2022-12-27T08:46:52.550Z,9.93
2022-12-27T08:49:20.352Z,9.99
2022-12-27T08:51:48.216Z,10.00
2022-12-27T08:54:16.036Z,10.02
2022-12-27T08:56:43.727Z,10.02
2022-12-27T08:59:11.563Z,10.11
2022-12-27T09:01:39.498Z,10.11
2022-12-27T09:04:07.321Z,10.11
2022-12-27T09:06:35.144Z,10.19
2022-12-27T09:09:02.873Z,10.20
2022-12-27T09:11:33.807Z,10.24
2022-12-27T09:14:04.569Z,10.30
2022-12-27T09:16:36.347Z,10.30
2022-12-27T09:19:05.227Z,10.37
2022-12-27T09:21:34.431Z,10.41
2022-12-27T09:24:02.954Z,10.48
2022-12-27T09:26:31.756Z,10.53
2022-12-27T09:29:00.641Z,10.61
2022-12-27T09:31:29.060Z,10.60
2022-12-27T09:33:58.538Z,10.68
2022-12-27T09:36:30.545Z,10.66
2022-12-27T09:38:59.029Z,10.71
2022-12-27T09:45:08.882Z,10.73
2022-12-27T09:48:11.736Z,10.80
2022-12-27T09:51:05.434Z,10.81
2022-12-27T09:53:56.708Z,10.86
2022-12-27T09:56:47.334Z,10.86
2022-12-27T09:59:39.511Z,10.90
2022-12-27T10:02:30.728Z,10.92
2022-12-27T10:08:22.049Z,11.03
2022-12-27T10:11:33.947Z,11.04
2022-12-27T10:14:30.266Z,10.90
2022-12-27T10:17:51.155Z,11.05
2022-12-27T10:21:01.899Z,11.08
2022-12-27T10:23:34.809Z,11.10
2022-12-27T10:26:11.853Z,11.17
2022-12-27T10:28:57.176Z,11.20
2022-12-27T10:31:26.937Z,11.22
2022-12-27T10:33:55.451Z,11.26
2022-12-27T10:36:30.244Z,11.31
2022-12-27T10:38:58.120Z,11.32
2022-12-27T10:42:10.212Z,11.39
2022-12-27T10:44:38.057Z,11.40
2022-12-27T10:47:06.379Z,11.45
2022-12-27T10:49:35.473Z,11.54
2022-12-27T10:52:32.596Z,11.60
2022-12-27T10:55:00.555Z,11.61
2022-12-27T10:57:34.718Z,11.67
2022-12-27T11:00:16.671Z,11.69
2022-12-27T11:02:57.043Z,11.75
2022-12-27T11:05:28.329Z,11.77
2022-12-27T11:07:56.486Z,11.77
2022-12-27T11:10:28.781Z,11.80
2022-12-27T11:13:17.608Z,11.85
2022-12-27T11:15:58.877Z,11.86
2022-12-27T11:18:27.048Z,11.85
2022-12-27T11:20:58.500Z,11.87
2022-12-27T11:23:47.299Z,11.88
2022-12-27T11:26:53.696Z,11.83
2022-12-27T11:29:27.349Z,11.84
2022-12-27T11:32:15.317Z,11.83
2022-12-27T11:34:56.312Z,11.83
2022-12-27T11:37:43.977Z,11.82
2022-12-27T11:40:30.437Z,11.84
2022-12-27T11:43:13.860Z,11.90
2022-12-27T11:45:51.100Z,11.88
2022-12-27T11:48:41.239Z,11.96
2022-12-27T11:51:21.283Z,12.01
2022-12-27T11:53:56.216Z,12.03
2022-12-27T11:56:28.079Z,12.03
2022-12-27T11:59:19.822Z,12.16
2022-12-27T12:02:20.856Z,12.17
2022-12-27T12:05:41.833Z,12.22
2022-12-27T12:08:53.428Z,12.24
2022-12-27T12:12:17.141Z,12.31
2022-12-27T12:15:22.691Z,12.37
2022-12-27T12:18:56.959Z,12.38
2022-12-27T12:21:33.582Z,12.44
2022-12-27T12:24:42.125Z,12.50
2022-12-27T12:27:51.578Z,12.51
2022-12-27T12:30:46.711Z,12.45
2022-12-27T12:34:11.069Z,12.36
2022-12-27T12:37:03.818Z,12.33
2022-12-27T12:39:50.372Z,12.37
2022-12-27T12:42:43.115Z,12.39
2022-12-27T12:45:48.511Z,12.40
2022-12-27T12:48:34.196Z,12.37
2022-12-27T12:51:34.659Z,12.42
2022-12-27T12:54:35.566Z,12.49
2022-12-27T12:57:21.089Z,12.53
2022-12-27T13:00:00.729Z,12.60
2022-12-27T13:02:56.136Z,12.67
2022-12-27T13:05:56.479Z,12.70
2022-12-27T13:08:54.087Z,12.72
2022-12-27T13:11:36.156Z,12.73
2022-12-27T13:14:39.590Z,12.83
2022-12-27T13:17:38.611Z,12.84
2022-12-27T13:21:00.266Z,12.84
2022-12-27T13:23:34.414Z,12.83
2022-12-27T13:26:20.909Z,12.86
2022-12-27T13:29:46.139Z,12.83
2022-12-27T13:32:43.061Z,12.79
2022-12-27T13:35:54.406Z,12.76
2022-12-27T13:39:12.717Z,12.72
2022-12-27T13:42:27.449Z,12.73
2022-12-27T13:45:33.970Z,12.71
2022-12-27T13:48:26.373Z,12.72
2022-12-27T13:51:35.332Z,12.73
2022-12-27T13:55:00.504Z,12.72
2022-12-27T13:58:33.560Z,12.62
2022-12-27T14:01:30.338Z,12.65
2022-12-27T14:04:46.533Z,12.63
2022-12-27T14:07:48.749Z,12.64
2022-12-27T14:10:48.803Z,12.65
2022-12-27T14:13:40.233Z,12.65
2022-12-27T14:16:40.401Z,12.64
2022-12-27T14:19:18.346Z,12.65
2022-12-27T14:22:37.207Z,12.63
2022-12-27T14:25:57.997Z,12.58
2022-12-27T14:28:37.828Z,12.58
2022-12-27T14:32:08.765Z,12.61
2022-12-27T14:35:24.045Z,12.60
2022-12-27T14:38:38.539Z,12.57
2022-12-27T14:42:03.047Z,12.57
2022-12-27T14:45:09.203Z,12.60
2022-12-27T14:48:07.211Z,12.61
2022-12-27T14:51:50.437Z,12.58
2022-12-27T14:54:59.291Z,12.53
2022-12-27T14:58:10.925Z,12.52
2022-12-27T15:01:05.436Z,12.49
2022-12-27T15:04:10.743Z,12.48
2022-12-27T15:07:05.743Z,12.48
2022-12-27T15:10:02.227Z,12.49
2022-12-27T15:13:03.165Z,12.49
2022-12-27T15:16:11.656Z,12.48
2022-12-27T15:19:04.129Z,12.43
2022-12-27T15:22:12.068Z,12.42
2022-12-27T15:24:50.594Z,12.42
2022-12-27T15:27:40.795Z,12.39
2022-12-27T15:30:29.036Z,12.37
2022-12-27T15:33:17.243Z,12.38
2022-12-27T15:36:24.739Z,12.37
2022-12-27T15:38:55.036Z,12.30
2022-12-27T15:41:44.685Z,12.25
2022-12-27T15:44:56.334Z,12.16
2022-12-27T15:47:42.683Z,12.10
2022-12-27T15:50:34.432Z,12.06
2022-12-27T15:53:14.403Z,12.00
2022-12-27T15:56:16.908Z,12.00
2022-12-27T15:58:45.584Z,11.98
2022-12-27T16:01:22.189Z,11.97
2022-12-27T16:03:55.250Z,11.87
2022-12-27T16:06:34.896Z,11.88
2022-12-27T16:09:24.347Z,11.86
2022-12-27T16:12:11.132Z,11.79
2022-12-27T16:14:43.835Z,11.73
2022-12-27T16:17:52.097Z,11.67
2022-12-27T16:20:23.322Z,11.61
2022-12-27T16:23:04.248Z,11.57
2022-12-27T16:25:41.528Z,11.50
2022-12-27T16:28:27.871Z,11.46
2022-12-27T16:30:59.100Z,11.46
2022-12-27T16:33:27.023Z,11.23
2022-12-27T16:36:15.649Z,11.31
2022-12-27T16:38:55.257Z,11.30
2022-12-27T16:41:25.815Z,11.28
2022-12-27T16:44:24.832Z,11.25
2022-12-27T16:47:18.496Z,11.24
2022-12-27T16:50:13.917Z,11.25
2022-12-27T16:53:12.756Z,11.21
2022-12-27T16:56:01.220Z,11.17
2022-12-27T16:58:31.653Z,11.13
2022-12-27T17:01:02.812Z,11.11
2022-12-27T17:03:39.418Z,11.07
2022-12-27T17:06:31.893Z,11.08
2022-12-27T17:09:20.867Z,11.06
2022-12-27T17:11:51.582Z,11.03
2022-12-27T17:14:37.768Z,10.94
2022-12-27T17:17:25.166Z,10.84
2022-12-27T17:20:00.828Z,10.81
2022-12-27T17:22:35.079Z,10.78
2022-12-27T17:25:04.878Z,10.77
2022-12-27T17:27:39.077Z,10.77
2022-12-27T17:30:17.617Z,10.77
2022-12-27T17:34:17.048Z,10.66
2022-12-27T17:37:14.188Z,10.67
2022-12-27T17:40:17.403Z,10.65
2022-12-27T17:43:43.955Z,10.64
2022-12-27T17:46:42.304Z,10.56
2022-12-27T17:49:11.629Z,10.51
2022-12-27T17:52:04.036Z,10.50
2022-12-27T17:54:51.325Z,10.46
2022-12-27T17:57:39.399Z,10.33
2022-12-27T18:00:31.136Z,10.18
2022-12-27T18:03:06.533Z,10.07
2022-12-27T18:05:41.926Z,9.95
2022-12-27T18:08:30.338Z,9.91
2022-12-27T18:11:00.051Z,9.83
2022-12-27T18:13:33.806Z,9.78
2022-12-27T18:16:24.576Z,9.81
2022-12-27T18:18:54.996Z,9.81
2022-12-27T18:21:30.879Z,9.75
2022-12-27T18:23:59.487Z,9.70
2022-12-27T18:26:46.222Z,9.68
2022-12-27T18:29:14.246Z,9.63
2022-12-27T18:31:49.266Z,9.63
2022-12-27T18:34:28.607Z,9.63
2022-12-27T18:37:09.383Z,9.59
2022-12-27T18:39:54.978Z,9.54
2022-12-27T18:42:37.535Z,9.49
2022-12-27T18:45:28.872Z,9.46
2022-12-27T18:48:00.246Z,9.37
2022-12-27T18:50:30.174Z,9.18
2022-12-27T18:53:08.179Z,9.26
2022-12-27T18:55:37.397Z,9.31
2022-12-27T18:58:20.719Z,9.32
2022-12-27T19:01:20.408Z,9.26
2022-12-27T19:04:22.959Z,9.23
2022-12-27T19:07:06.363Z,9.20
2022-12-27T19:10:02.076Z,9.10
2022-12-27T19:12:38.857Z,9.16
2022-12-27T19:15:28.379Z,9.19
2022-12-27T19:18:04.746Z,9.16
2022-12-27T19:20:37.339Z,9.17
2022-12-27T19:23:27.128Z,9.15
2022-12-27T19:26:30.293Z,9.08
2022-12-27T19:29:14.506Z,9.02
2022-12-27T19:31:51.453Z,9.00
2022-12-27T19:34:21.473Z,8.96
2022-12-27T19:36:50.872Z,8.95
2022-12-27T19:39:30.346Z,8.93
2022-12-27T19:42:01.821Z,8.91
2022-12-27T19:44:31.742Z,8.82
2022-12-27T19:47:00.887Z,8.85
2022-12-27T19:49:42.834Z,8.86
2022-12-27T19:52:22.836Z,8.85
2022-12-27T19:54:58.347Z,8.83
2022-12-27T19:57:40.724Z,8.75
2022-12-27T20:00:17.997Z,8.71
2022-12-27T20:02:47.050Z,8.68
2022-12-27T20:05:15.451Z,8.68
2022-12-27T20:07:43.815Z,8.68
2022-12-27T20:10:16.229Z,8.66
2022-12-27T20:12:44.888Z,8.61
2022-12-27T20:15:14.826Z,8.62
2022-12-27T20:17:47.146Z,8.60
2022-12-27T20:20:20.018Z,8.56
2022-12-27T20:22:53.505Z,8.55
2022-12-27T20:25:22.860Z,8.51
2022-12-27T20:27:53.404Z,8.52
2022-12-27T20:30:25.409Z,8.49
2022-12-27T20:32:54.852Z,8.44
2022-12-27T20:35:24.270Z,8.43
2022-12-27T20:37:52.947Z,8.40
2022-12-27T20:40:23.940Z,8.21
2022-12-27T20:42:52.124Z,8.30
2022-12-27T20:45:20.134Z,8.32
2022-12-27T20:47:48.087Z,8.32
2022-12-27T20:50:16.542Z,8.31
2022-12-27T20:52:44.769Z,8.31
2022-12-27T20:55:13.273Z,8.33
2022-12-27T20:57:42.543Z,8.32
2022-12-27T21:00:13.770Z,8.29
2022-12-27T21:02:42.225Z,8.27
2022-12-27T21:05:10.689Z,8.26
2022-12-27T21:07:38.880Z,8.28
2022-12-27T21:10:09.304Z,8.27
2022-12-27T21:12:38.588Z,8.28
2022-12-27T21:15:10.971Z,8.27
2022-12-27T21:17:39.583Z,8.24
2022-12-27T21:20:11.610Z,8.26
2022-12-27T21:22:39.626Z,8.19
2022-12-27T21:25:08.957Z,8.17
2022-12-27T21:27:37.072Z,8.11
2022-12-27T21:30:06.504Z,8.06
2022-12-27T21:32:34.664Z,8.05
2022-12-27T21:35:03.008Z,7.98
2022-12-27T21:37:31.683Z,7.96
2022-12-27T21:39:59.749Z,7.91
2022-12-27T21:42:27.681Z,7.89
2022-12-27T21:44:55.936Z,7.89
2022-12-27T21:47:24.166Z,7.88
2022-12-27T21:49:52.241Z,7.87
2022-12-27T21:52:20.615Z,7.90
2022-12-27T21:54:48.832Z,7.89
2022-12-27T21:57:16.765Z,7.92
2022-12-27T21:59:45.053Z,7.91
2022-12-27T22:02:13.264Z,7.89
2022-12-27T22:04:41.388Z,7.90
2022-12-27T22:07:09.529Z,7.91
2022-12-27T22:09:37.721Z,7.89
2022-12-27T22:12:06.092Z,7.90
2022-12-27T22:14:37.063Z,7.91
2022-12-27T22:17:05.914Z,7.90
2022-12-27T22:19:34.412Z,7.88
2022-12-27T22:22:02.492Z,7.90
2022-12-27T22:24:31.161Z,7.92
2022-12-27T22:26:59.152Z,7.87
2022-12-27T22:29:31.553Z,7.88
2022-12-27T22:32:03.492Z,7.88
2022-12-27T22:34:31.305Z,7.88
2022-12-27T22:36:59.181Z,7.89
2022-12-27T22:39:29.269Z,7.84
2022-12-27T22:41:57.350Z,7.82
2022-12-27T22:44:27.029Z,7.75
2022-12-27T22:49:43.652Z,7.69
2022-12-27T22:52:11.868Z,7.69
2022-12-27T22:55:05.252Z,7.66
2022-12-27T22:57:27.996Z,7.66
2022-12-27T22:59:56.114Z,7.66
2022-12-27T23:02:24.349Z,7.67
2022-12-27T23:04:52.547Z,7.66
2022-12-27T23:07:21.282Z,7.67
2022-12-27T23:10:10.425Z,7.64
2022-12-27T23:12:39.045Z,7.69
2022-12-27T23:15:07.926Z,7.72
2022-12-27T23:17:36.062Z,7.75
2022-12-27T23:20:05.156Z,7.75
2022-12-27T23:22:33.308Z,7.77
2022-12-27T23:25:01.057Z,7.78
2022-12-27T23:27:29.571Z,7.79
2022-12-27T23:29:58.033Z,7.80
2022-12-27T23:32:26.750Z,7.81
2022-12-27T23:34:54.919Z,7.84
2022-12-27T23:37:22.776Z,7.86
2022-12-27T23:39:51.276Z,7.89
2022-12-27T23:42:19.432Z,7.91
2022-12-27T23:44:47.395Z,7.91
2022-12-27T23:47:15.538Z,7.92
2022-12-27T23:49:43.502Z,7.93
2022-12-27T23:52:11.704Z,7.95
2022-12-27T23:54:39.537Z,7.96
2022-12-27T23:57:22.210Z,7.93
2022-12-27T23:59:51.772Z,7.90
